Terminal Aerodrome Forecast
Issued by NWS

Home | Current Version | Previous Version | Text Only | Print | Product List | Glossary Off
Versions: 1 2 3 4 5 6 7 8 9 10 11 12 13 14 15

144
FTUS43 KICT 040529
TAFHUT
TAF
KHUT 040529Z 0406/0506 11004KT 3SM -RA OVC004
     FM041100 31005KT 3SM BR OVC004
     FM041600 32008KT P6SM FEW015
     FM042300 22005KT P6SM SKC=

USA.gov is the U.S. government's official web portal to all federal, state and local government web resources and services.